Thunder radar more information blitzortung!


Radar de pluja more information rain snow radar


Visita la nostra xarxa de llocs de meteo:

Template documentation
and downloads

And another site



No particular awareness of the weather is required.    There are no Weather-warnings

Pagina Historial Weather Underground text

Diari Resum Setembre 21, 2017 Unitats:  Imperial    Mètric   Tant
« Previous Dia
SegĂźent Dia »
Diari Setmana Mensual Anual Personalitzada
  Maxima: Minima: Media:
Temperatura: 81.5 °F 55.4 °F 70.3 °F
Punt de rosada: 60.6 °F 47.5 °F 57.2 °F
Humitat: 81 % 47 % 64 %
Wind Speed: 12.7 mph 0 mph 3.9 mph
RĂ fegues de vent: 12.7 mph - -
Vent:- - SSW
Pression baro: 30.1 in 30 in -
Precipitacions: 0 in    
Historical Graphs
 
 
Dades de taula per Setembre 21, 2017
Temps Temperatura Punt de rosada Pression baro Vent Wind Speed RĂ fegues de vent Humitat Rainfall Rate (Hourly)
00:00 56.1 °F 47.7 °F 30.1 in West 1 mph 2 mph 73 % 0 in
00:03 60.4 °F 47.5 °F 30.1 in Calm     62 % 0 in
00:10 56.1 °F 47.8 °F 30.1 in Calm     74 % 0 in
00:20 56.1 °F 47.8 °F 30.1 in Calm     74 % 0 in
00:30 56.1 °F 47.8 °F 30.1 in Calm     74 % 0 in
00:40 55.9 °F 47.8 °F 30.1 in Calm   1 mph 74 % 0 in
00:50 55.9 °F 47.8 °F 30.1 in WSW 1 mph 2 mph 74 % 0 in
01:00 56.1 °F 48.4 °F 30 in WSW 1 mph 1 mph 75 % 0 in
01:10 56.3 °F 48.6 °F 30.1 in Calm     75 % 0 in
01:20 56.1 °F 48.4 °F 30.1 in Calm   2 mph 75 % 0 in
01:30 55.9 °F 48 °F 30.1 in Calm     75 % 0 in
01:40 55.8 °F 48 °F 30.1 in Calm   2 mph 75 % 0 in
01:50 55.8 °F 48 °F 30.1 in Calm     75 % 0 in
02:00 55.4 °F 47.7 °F 30.1 in WSW 1 mph 2 mph 75 % 0 in
02:10 55.4 °F 48 °F 30.1 in Calm     76 % 0 in
02:20 55.4 °F 48.4 °F 30.1 in Calm   1 mph 77 % 0 in
02:30 55.4 °F 48 °F 30.1 in Calm   2 mph 76 % 0 in
02:40 55.6 °F 48 °F 30 in Calm   1 mph 76 % 0 in
02:50 55.6 °F 48.6 °F 30 in Calm   1 mph 77 % 0 in
03:00 55.4 °F 48 °F 30.1 in NNE 1 mph 1 mph 76 % 0 in
03:10 55.8 °F 48.4 °F 30.1 in Calm   2 mph 76 % 0 in
03:20 55.9 °F 48.6 °F 30.1 in Calm     76 % 0 in
03:30 55.8 °F 48.4 °F 30.1 in WNW 1 mph 2 mph 76 % 0 in
03:40 56.3 °F 49.3 °F 30.1 in WSW 1 mph 1 mph 77 % 0 in
03:50 56.7 °F 49.5 °F 30.1 in Calm   2 mph 77 % 0 in
04:00 56.7 °F 49.3 °F 30.1 in SW 1 mph 2 mph 76 % 0 in
04:10 58.6 °F 51.4 °F 30.1 in SW 1 mph 1 mph 77 % 0 in
04:20 59.7 °F 51.4 °F 30.1 in Calm   3 mph 74 % 0 in
04:30 60.6 °F 51.3 °F 30.1 in NNE 3 mph 3 mph 71 % 0 in
04:40 60.3 °F 50.4 °F 30.1 in NNE 1 mph 1 mph 70 % 0 in
04:50 61 °F 50.7 °F 30.1 in NW 1 mph 2 mph 69 % 0 in
05:00 62.4 °F 51.6 °F 30.1 in NW 1 mph 2 mph 68 % 0 in
05:10 62.2 °F 51.1 °F 30.1 in Calm   2 mph 67 % 0 in
05:20 62.6 °F 51.1 °F 30.1 in South 1 mph 2 mph 66 % 0 in
05:30 64.9 °F 53.2 °F 30.1 in ESE 1 mph 2 mph 66 % 0 in
05:40 64.8 °F 52.7 °F 30.1 in Calm   3 mph 65 % 0 in
05:50 65.3 °F 52.3 °F 30.1 in ENE 3 mph 3 mph 63 % 0 in
06:00 66.6 °F 53.1 °F 30.1 in NE 2 mph 4 mph 62 % 0 in
06:10 66.2 °F 52.9 °F 30.1 in ENE 1 mph 3 mph 62 % 0 in
11:18 67.6 °F 54.1 °F 30.1 in ENE 2.3 mph 2.3 mph 62 % 0 in
11:19 67.6 °F 54.1 °F 30.1 in ENE 2.3 mph 2.3 mph 62 % 0 in
11:24 67.8 °F 54 °F 30.1 in NE 2.3 mph 2.6 mph 61 % 0 in
11:29 68 °F 53.6 °F 30.1 in East 2.3 mph 2.3 mph 60 % 0 in
11:34 69.1 °F 54.7 °F 30.1 in ESE 1.2 mph 1.2 mph 60 % 0 in
11:39 69.6 °F 55 °F 30.1 in WSW 1.2 mph   60 % 0 in
11:44 70.2 °F 55.2 °F 30.1 in SE 2.4 mph 2.4 mph 59 % 0 in
11:49 70 °F 55 °F 30.1 in East 3.5 mph 3.5 mph 59 % 0 in
11:54 70.2 °F 54.7 °F 30.1 in ESE 4.6 mph 4.6 mph 58 % 0 in
11:59 70.3 °F 55.8 °F 30.1 in NNE 2.3 mph 2.3 mph 60 % 0 in
12:04 70.9 °F 56.8 °F 30.1 in East 3.5 mph 3.5 mph 61 % 0 in
12:09 70.9 °F 56.8 °F 30.1 in WNW 3.5 mph 3.5 mph 61 % 0 in
12:14 72.1 °F 57.6 °F 30.1 in ESE 4 mph 4 mph 60 % 0 in
12:19 71.8 °F 57 °F 30.1 in NE 5.8 mph 5.8 mph 60 % 0 in
12:24 72.3 °F 57.7 °F 30.1 in ESE 5.8 mph 5.8 mph 60 % 0 in
12:29 72.3 °F 57.7 °F 30.1 in South 5.8 mph 5.8 mph 60 % 0 in
12:34 72.7 °F 57.6 °F 30.1 in SSE 3.5 mph 3.5 mph 59 % 0 in
12:39 72.9 °F 58.3 °F 30.1 in NNE 3.5 mph 3.5 mph 60 % 0 in
12:44 73.9 °F 59.2 °F 30.1 in ESE 3.8 mph 3.8 mph 60 % 0 in
12:49 73.2 °F 57.6 °F 30.1 in SE 6.9 mph 6.9 mph 58 % 0 in
12:54 73.2 °F 57.9 °F 30.1 in ENE 4.6 mph 4.6 mph 59 % 0 in
12:59 73.4 °F 58.3 °F 30.1 in East 5.8 mph 5.8 mph 59 % 0 in
13:04 73.8 °F 58.1 °F 30 in ESE 3.5 mph 3.5 mph 58 % 0 in
13:09 74.1 °F 58.8 °F 30 in East 5.8 mph 5.8 mph 59 % 0 in
13:14 74.5 °F 58.6 °F 30 in NNE 5.8 mph 5.8 mph 58 % 0 in
13:19 74.5 °F 58.6 °F 30.1 in ESE 2.3 mph 2.3 mph 58 % 0 in
13:24 75.7 °F 59.4 °F 30.1 in ESE 3.5 mph 3.5 mph 57 % 0 in
13:29 76.1 °F 59.4 °F 30.1 in NE 4.6 mph 4.6 mph 56 % 0 in
13:34 75.6 °F 58.3 °F 30.1 in SE 4.6 mph 4.6 mph 55 % 0 in
13:39 76.3 °F 58.8 °F 30.1 in SSE 5.8 mph 5.8 mph 55 % 0 in
13:44 75.9 °F 58.6 °F 30.1 in NW 5.8 mph 5.8 mph 55 % 0 in
13:49 76.3 °F 58.8 °F 30.1 in SSE 4.6 mph 5.4 mph 55 % 0 in
13:54 77.2 °F 59.2 °F 30.1 in SSW 4.6 mph 4.6 mph 54 % 0 in
13:59 78.1 °F 60.1 °F 30.1 in SW 3.5 mph 3.5 mph 54 % 0 in
14:04 77.4 °F 59.4 °F 30.1 in WSW 3.5 mph 3.5 mph 54 % 0 in
14:09 77.7 °F 59.7 °F 30.1 in SW 8.1 mph 8.1 mph 54 % 0 in
14:14 79 °F 60.4 °F 30.1 in SSE 2.6 mph 2.6 mph 53 % 0 in
14:19 79.2 °F 60.6 °F 30.1 in SSE 2.3 mph   53 % 0 in
14:24 78.6 °F 60.1 °F 30.1 in East 5.8 mph 5.8 mph 53 % 0 in
14:29 79.3 °F 60.3 °F 30.1 in ESE 4.6 mph 4.6 mph 52 % 0 in
14:34 80.6 °F 60.3 °F 30 in South 2.3 mph 2.3 mph 50 % 0 in
14:39 81 °F 60.6 °F 30 in SW 5.8 mph 5.8 mph 50 % 0 in
14:44 80.1 °F 59.7 °F 30 in SSW 9.2 mph 9.2 mph 50 % 0 in
14:49 80.4 °F 60.1 °F 30 in SSW 5.8 mph 5.8 mph 50 % 0 in
14:54 80.6 °F 59.7 °F 30 in WSW 8.1 mph 8.1 mph 49 % 0 in
14:59 79.9 °F 59 °F 30 in SSW 5.8 mph 5.8 mph 49 % 0 in
15:04 80.4 °F 59.5 °F 30 in West 5.8 mph 5.8 mph 49 % 0 in
15:09 81.1 °F 59.5 °F 30 in SSW 5.8 mph 5.8 mph 48 % 0 in
15:14 81.5 °F 59.9 °F 30 in SW 5.8 mph 5.8 mph 48 % 0 in
15:19 81.5 °F 59.4 °F 30 in NNW 4.6 mph 4.6 mph 47 % 0 in
15:24 81 °F 59.4 °F 30 in SW 8.1 mph 8.1 mph 48 % 0 in
15:29 80.6 °F 59.2 °F 30 in SSW 2.3 mph 2.3 mph 48 % 0 in
15:34 80.4 °F 59.5 °F 30 in South 3.5 mph 3.5 mph 49 % 0 in
15:39 80.6 °F 59.2 °F 30 in WSW 2.9 mph 2.9 mph 48 % 0 in
15:44 81 °F 59.4 °F 30 in SSW 5.8 mph 5.8 mph 48 % 0 in
15:49 80.6 °F 59.2 °F 30 in SW 8.1 mph 8.1 mph 48 % 0 in
15:54 79.7 °F 58.8 °F 30 in WSW 3.8 mph 3.8 mph 49 % 0 in
15:59 80.1 °F 59.2 °F 30 in WSW 4.6 mph 4.6 mph 49 % 0 in
16:04 80.4 °F 60.1 °F 30 in West 9.2 mph 9.2 mph 50 % 0 in
16:09 79.7 °F 59.4 °F 30 in South 4.6 mph 4.6 mph 50 % 0 in
16:14 79.7 °F 59.4 °F 30 in WSW 5.8 mph 5.8 mph 50 % 0 in
16:19 78.4 °F 58.3 °F 30 in SE 5.8 mph 5.9 mph 50 % 0 in
16:24 78.8 °F 58.6 °F 30 in South 9.2 mph 9.2 mph 50 % 0 in
16:29 77.9 °F 58.3 °F 30 in SW 5.8 mph 5.8 mph 51 % 0 in
16:34 77.9 °F 58.3 °F 30 in SSW 5.8 mph 5.8 mph 51 % 0 in
16:39 79 °F 59.4 °F 30 in SW 4.6 mph 4.6 mph 51 % 0 in
16:44 79.2 °F 59.5 °F 30 in SSW 5.8 mph 5.8 mph 51 % 0 in
16:49 78.1 °F 58.5 °F 30 in SW 8.1 mph 8.1 mph 51 % 0 in
16:54 78.4 °F 58.8 °F 30 in West 4.6 mph 4.6 mph 51 % 0 in
16:59 79.2 °F 59.5 °F 30 in SSE 4.6 mph 4.6 mph 51 % 0 in
17:04 79.2 °F 59.5 °F 30 in South 4.7 mph 4.7 mph 51 % 0 in
17:09 78.8 °F 59.2 °F 30 in SSE 6.9 mph 6.9 mph 51 % 0 in
17:14 78.4 °F 58.8 °F 30 in SW 8.1 mph 8.1 mph 51 % 0 in
17:19 77.9 °F 58.8 °F 30 in SW 4.6 mph 4.6 mph 52 % 0 in
17:24 77.9 °F 58.8 °F 30 in South 9.2 mph 9.2 mph 52 % 0 in
17:29 77.7 °F 58.6 °F 30 in South 8.1 mph 8.1 mph 52 % 0 in
17:34 78.1 °F 59 °F 30 in SSW 6.9 mph 6.9 mph 52 % 0 in
17:39 77.9 °F 59.4 °F 30 in SSE 8.1 mph 8.1 mph 53 % 0 in
17:44 77.5 °F 59.2 °F 30 in WSW 6.9 mph 6.9 mph 53 % 0 in
17:49 77.4 °F 58.8 °F 30 in SSW 3.5 mph 3.5 mph 53 % 0 in
17:54 77 °F 58.6 °F 30 in SSW 3.5 mph 3.5 mph 53 % 0 in
17:59 76.8 °F 59.4 °F 30 in SSW 5.8 mph 5.8 mph 55 % 0 in
18:04 76.5 °F 59.2 °F 30 in SSW 6.9 mph 6.9 mph 55 % 0 in
18:09 75.9 °F 59.2 °F 30 in SSW 12.7 mph 12.7 mph 56 % 0 in
18:14 75.7 °F 58.8 °F 30 in SW 5.8 mph 5.8 mph 56 % 0 in
18:19 75.7 °F 59.4 °F 30 in SW 8.1 mph 8.1 mph 57 % 0 in
18:24 75.6 °F 59.4 °F 30 in SW 4.6 mph 4.6 mph 57 % 0 in
18:29 75.4 °F 59.2 °F 30 in SSE 9.2 mph 9.2 mph 57 % 0 in
18:34 75.6 °F 59.4 °F 30 in SW 5.8 mph 5.8 mph 57 % 0 in
18:39 75.4 °F 59.5 °F 30 in WNW 6 mph 6 mph 58 % 0 in
18:44 75.2 °F 59.4 °F 30 in SW 8.1 mph 8.1 mph 58 % 0 in
18:49 74.7 °F 59.9 °F 30 in WSW 8.5 mph 8.5 mph 60 % 0 in
18:54 74.3 °F 59.5 °F 30 in SW 5.8 mph 5.8 mph 60 % 0 in
18:59 73.9 °F 59.2 °F 30 in SSW 8.1 mph 8.1 mph 60 % 0 in
19:04 73.6 °F 59.4 °F 30 in SW 5.9 mph 5.9 mph 61 % 0 in
19:05 73.6 °F 59.4 °F 30 in SW 8.1 mph 8.1 mph 61 % 0 in
19:10 73.2 °F 59.4 °F 30 in South 5.8 mph 5.8 mph 62 % 0 in
19:15 72.9 °F 59.5 °F 30 in SW 5.8 mph 5.8 mph 63 % 0 in
19:20 72.5 °F 59.2 °F 30 in SSW 6.9 mph 6.9 mph 63 % 0 in
19:25 72.5 °F 59.5 °F 30 in SW 5.8 mph 5.8 mph 64 % 0 in
19:30 72.1 °F 59.4 °F 30 in SW 5.8 mph 5.8 mph 64 % 0 in
19:35 72 °F 59.5 °F 30 in SW 8.1 mph 8.1 mph 65 % 0 in
19:40 71.8 °F 59.4 °F 30 in SW 5.8 mph 5.8 mph 65 % 0 in
19:45 71.6 °F 59.2 °F 30 in South 8.1 mph 8.1 mph 65 % 0 in
19:50 71.4 °F 59.9 °F 30 in SSW 5.8 mph 5.8 mph 67 % 0 in
19:55 71.1 °F 60.1 °F 30 in SSE 8.1 mph 8.1 mph 68 % 0 in
20:00 70.9 °F 59.7 °F 30 in WSW 4.6 mph 4.6 mph 68 % 0 in
20:05 70.7 °F 60.1 °F 30 in SSW 6.9 mph 6.9 mph 69 % 0 in
20:10 70.5 °F 60.3 °F 30 in SSW 5.8 mph 5.8 mph 70 % 0 in
20:15 70.3 °F 60.1 °F 30 in WSW 6 mph 6 mph 70 % 0 in
20:20 70.2 °F 59.9 °F 30 in SW 5.8 mph 5.8 mph 70 % 0 in
20:25 70 °F 60.1 °F 30 in WSW 5.8 mph 5.8 mph 71 % 0 in
20:30 69.8 °F 60.1 °F 30 in SSW 5.6 mph 5.6 mph 71 % 0 in
20:35 69.6 °F 59.7 °F 30.1 in WSW 5.8 mph 5.8 mph 71 % 0 in
20:40 69.4 °F 60.1 °F 30.1 in West 6.9 mph 6.9 mph 72 % 0 in
20:45 69.4 °F 60.1 °F 30.1 in SW 5.8 mph 5.8 mph 72 % 0 in
20:50 69.3 °F 59.7 °F 30.1 in SSW 8.1 mph 8.1 mph 72 % 0 in
20:55 69.1 °F 60.1 °F 30.1 in WSW 4.6 mph 4.6 mph 73 % 0 in
21:00 68.9 °F 59.9 °F 30.1 in SW 3.5 mph 3.5 mph 73 % 0 in
21:05 68.7 °F 59.7 °F 30.1 in SW 5.8 mph 5.8 mph 73 % 0 in
21:10 68.7 °F 59.7 °F 30.1 in SW 6.9 mph 6.9 mph 73 % 0 in
21:15 68.5 °F 59.9 °F 30.1 in SW 5.8 mph 5.8 mph 74 % 0 in
21:20 68.5 °F 59.9 °F 30.1 in SW 3.5 mph 3.5 mph 74 % 0 in
21:25 68.4 °F 59.7 °F 30.1 in SW 3.8 mph 3.8 mph 74 % 0 in
21:30 68.4 °F 60.1 °F 30.1 in SW 5.8 mph 5.8 mph 75 % 0 in
21:35 68.2 °F 60.1 °F 30.1 in SW 4.6 mph 4.6 mph 75 % 0 in
21:40 68.2 °F 60.1 °F 30.1 in SW 3.5 mph 3.5 mph 75 % 0 in
21:45 68 °F 60.3 °F 30.1 in WSW 3.5 mph 3.5 mph 76 % 0 in
21:50 68 °F 60.3 °F 30.1 in SSW 3.5 mph 3.5 mph 76 % 0 in
21:55 67.8 °F 60.1 °F 30.1 in SW 2.9 mph 2.9 mph 76 % 0 in
22:00 67.8 °F 60.3 °F 30.1 in WSW 2.4 mph 2.4 mph 77 % 0 in
22:05 67.8 °F 60.3 °F 30.1 in SW 2.3 mph 2.3 mph 77 % 0 in
22:10 67.6 °F 60.3 °F 30.1 in SW 2.3 mph 2.3 mph 77 % 0 in
22:15 67.6 °F 60.3 °F 30.1 in West 2 mph   77 % 0 in
22:20 67.6 °F 60.3 °F 30.1 in WSW 1.2 mph 1.2 mph 77 % 0 in
22:25 67.6 °F 60.3 °F 30.1 in WNW 2.3 mph 2.3 mph 77 % 0 in
22:30 67.6 °F 60.3 °F 30.1 in West 2.3 mph 2.3 mph 77 % 0 in
22:35 67.6 °F 60.3 °F 30.1 in West 1.2 mph 1.2 mph 77 % 0 in
22:40 67.6 °F 60.4 °F 30.1 in Calm     78 % 0 in
22:45 67.5 °F 60.4 °F 30.1 in WSW 1.2 mph   78 % 0 in
22:50 67.3 °F 60.3 °F 30.1 in Calm     78 % 0 in
22:55 67.3 °F 60.3 °F 30.1 in Calm     78 % 0 in
23:00 67.3 °F 60.3 °F 30.1 in WSW 2.3 mph 2.3 mph 78 % 0 in
23:05 67.3 °F 60.3 °F 30.1 in WSW 1.2 mph 1.2 mph 78 % 0 in
23:10 67.1 °F 60.4 °F 30.1 in Calm     79 % 0 in
23:15 66.9 °F 60.3 °F 30.1 in Calm     79 % 0 in
23:20 66.7 °F 60.1 °F 30.1 in Calm     79 % 0 in
23:25 66.7 °F 60.1 °F 30.1 in Calm     79 % 0 in
23:30 66.6 °F 59.7 °F 30.1 in Calm     79 % 0 in
23:35 66.6 °F 59.7 °F 30.1 in Calm     79 % 0 in
23:40 66.6 °F 59.7 °F 30.1 in Calm     79 % 0 in
23:45 66.4 °F 60.1 °F 30.1 in Calm     80 % 0 in
23:50 66.4 °F 60.1 °F 30.1 in Calm     80 % 0 in
23:55 66.2 °F 60.3 °F 30.1 in Calm     81 % 0 in
Meteo Sesrovires
Elogis d' Weather Underground - 3.5 mb

Guio original per  Jim McMurry - jmcmurry@mwt.net Adaptat per a la plantilla per  Wim van der Kuil - Leuven-Template.eu

Trobareu la nostra informacio del temps tambe a:

Weather Underground

AWEKAS